sensor_id;sensor_type;location;lat;lon;timestamp;temperature;humidity
42085;DHT22;27746;52.228;20.890;2022-09-25T00:00:30;10.70;94.40
42085;DHT22;27746;52.228;20.890;2022-09-25T00:02:58;10.70;94.50
42085;DHT22;27746;52.228;20.890;2022-09-25T00:05:24;10.70;94.60
42085;DHT22;27746;52.228;20.890;2022-09-25T00:07:51;10.60;94.90
42085;DHT22;27746;52.228;20.890;2022-09-25T00:10:21;10.60;95.00
42085;DHT22;27746;52.228;20.890;2022-09-25T00:12:49;10.60;95.10
42085;DHT22;27746;52.228;20.890;2022-09-25T00:15:16;10.50;95.20
42085;DHT22;27746;52.228;20.890;2022-09-25T00:17:43;10.50;95.20
42085;DHT22;27746;52.228;20.890;2022-09-25T00:20:11;10.50;95.40
42085;DHT22;27746;52.228;20.890;2022-09-25T00:22:39;10.50;95.50
42085;DHT22;27746;52.228;20.890;2022-09-25T00:25:09;10.50;95.50
42085;DHT22;27746;52.228;20.890;2022-09-25T00:27:37;10.40;95.70
42085;DHT22;27746;52.228;20.890;2022-09-25T00:30:05;10.40;96.00
42085;DHT22;27746;52.228;20.890;2022-09-25T00:32:32;10.40;96.20
42085;DHT22;27746;52.228;20.890;2022-09-25T00:34:59;10.30;96.50
42085;DHT22;27746;52.228;20.890;2022-09-25T00:37:27;10.30;96.70
42085;DHT22;27746;52.228;20.890;2022-09-25T00:39:54;10.30;96.90
42085;DHT22;27746;52.228;20.890;2022-09-25T00:42:22;10.30;97.10
42085;DHT22;27746;52.228;20.890;2022-09-25T00:44:55;10.20;97.20
42085;DHT22;27746;52.228;20.890;2022-09-25T00:47:42;10.20;97.50
42085;DHT22;27746;52.228;20.890;2022-09-25T00:50:15;10.10;97.80
42085;DHT22;27746;52.228;20.890;2022-09-25T00:52:46;10.10;98.00
42085;DHT22;27746;52.228;20.890;2022-09-25T00:55:14;10.10;98.30
42085;DHT22;27746;52.228;20.890;2022-09-25T00:57:44;10.00;98.40
42085;DHT22;27746;52.228;20.890;2022-09-25T01:00:13;9.50;98.40
42085;DHT22;27746;52.228;20.890;2022-09-25T01:02:42;10.00;98.70
42085;DHT22;27746;52.228;20.890;2022-09-25T01:05:11;10.00;98.80
42085;DHT22;27746;52.228;20.890;2022-09-25T01:07:42;10.00;99.00
42085;DHT22;27746;52.228;20.890;2022-09-25T01:10:11;10.00;99.10
42085;DHT22;27746;52.228;20.890;2022-09-25T01:12:40;10.00;99.20
42085;DHT22;27746;52.228;20.890;2022-09-25T01:15:09;9.90;99.30
42085;DHT22;27746;52.228;20.890;2022-09-25T01:17:42;10.00;99.50
42085;DHT22;27746;52.228;20.890;2022-09-25T01:20:13;9.90;99.60
42085;DHT22;27746;52.228;20.890;2022-09-25T01:22:51;9.90;99.60
42085;DHT22;27746;52.228;20.890;2022-09-25T01:25:33;9.90;99.70
42085;DHT22;27746;52.228;20.890;2022-09-25T01:28:19;9.90;99.70
42085;DHT22;27746;52.228;20.890;2022-09-25T01:31:01;9.90;99.70
42085;DHT22;27746;52.228;20.890;2022-09-25T01:33:34;9.90;99.70
42085;DHT22;27746;52.228;20.890;2022-09-25T01:36:08;9.90;99.80
42085;DHT22;27746;52.228;20.890;2022-09-25T01:38:41;9.90;99.80
42085;DHT22;27746;52.228;20.890;2022-09-25T01:41:14;9.80;99.90
42085;DHT22;27746;52.228;20.890;2022-09-25T01:43:43;9.80;99.90
42085;DHT22;27746;52.228;20.890;2022-09-25T01:46:15;9.70;99.90
42085;DHT22;27746;52.228;20.890;2022-09-25T01:48:44;9.70;99.90
42085;DHT22;27746;52.228;20.890;2022-09-25T01:51:15;9.70;99.90
42085;DHT22;27746;52.228;20.890;2022-09-25T01:53:46;9.60;99.90
42085;DHT22;27746;52.228;20.890;2022-09-25T01:56:17;9.60;99.90
42085;DHT22;27746;52.228;20.890;2022-09-25T01:58:48;9.60;99.90
42085;DHT22;27746;52.228;20.890;2022-09-25T02:01:22;9.60;99.90
42085;DHT22;27746;52.228;20.890;2022-09-25T02:03:56;9.60;99.90
42085;DHT22;27746;52.228;20.890;2022-09-25T02:06:25;9.60;99.90
42085;DHT22;27746;52.228;20.890;2022-09-25T02:08:56;9.60;99.90
42085;DHT22;27746;52.228;20.890;2022-09-25T02:11:29;9.60;99.90
42085;DHT22;27746;52.228;20.890;2022-09-25T02:14:02;9.60;99.90
42085;DHT22;27746;52.228;20.890;2022-09-25T02:16:34;9.50;99.90
42085;DHT22;27746;52.228;20.890;2022-09-25T02:19:01;9.50;99.90
42085;DHT22;27746;52.228;20.890;2022-09-25T02:21:49;9.50;99.90
42085;DHT22;27746;52.228;20.890;2022-09-25T02:24:20;9.50;99.90
42085;DHT22;27746;52.228;20.890;2022-09-25T02:26:50;9.50;99.90
42085;DHT22;27746;52.228;20.890;2022-09-25T02:29:17;9.50;99.90
42085;DHT22;27746;52.228;20.890;2022-09-25T02:31:48;9.50;99.90
42085;DHT22;27746;52.228;20.890;2022-09-25T02:34:15;9.50;99.90
42085;DHT22;27746;52.228;20.890;2022-09-25T02:36:42;9.50;99.90
42085;DHT22;27746;52.228;20.890;2022-09-25T02:39:10;9.50;99.90
42085;DHT22;27746;52.228;20.890;2022-09-25T02:41:59;9.50;99.90
42085;DHT22;27746;52.228;20.890;2022-09-25T02:44:37;9.50;99.90
42085;DHT22;27746;52.228;20.890;2022-09-25T02:47:18;9.40;99.90
42085;DHT22;27746;52.228;20.890;2022-09-25T02:49:52;9.40;99.90
42085;DHT22;27746;52.228;20.890;2022-09-25T02:52:27;9.40;99.90
42085;DHT22;27746;52.228;20.890;2022-09-25T02:55:03;9.30;99.90
42085;DHT22;27746;52.228;20.890;2022-09-25T02:57:36;9.30;99.90
42085;DHT22;27746;52.228;20.890;2022-09-25T03:00:06;9.30;99.90
42085;DHT22;27746;52.228;20.890;2022-09-25T03:02:37;9.20;99.90
42085;DHT22;27746;52.228;20.890;2022-09-25T03:05:05;9.30;99.90
42085;DHT22;27746;52.228;20.890;2022-09-25T03:07:32;9.20;99.90
42085;DHT22;27746;52.228;20.890;2022-09-25T03:10:19;9.20;99.90
42085;DHT22;27746;52.228;20.890;2022-09-25T03:12:46;9.10;99.90
42085;DHT22;27746;52.228;20.890;2022-09-25T03:15:13;9.10;99.90
42085;DHT22;27746;52.228;20.890;2022-09-25T03:17:41;9.10;99.90
42085;DHT22;27746;52.228;20.890;2022-09-25T03:20:08;9.10;99.90
42085;DHT22;27746;52.228;20.890;2022-09-25T03:22:35;9.10;99.90
42085;DHT22;27746;52.228;20.890;2022-09-25T03:25:03;9.00;99.90
42085;DHT22;27746;52.228;20.890;2022-09-25T03:27:30;9.00;99.90
42085;DHT22;27746;52.228;20.890;2022-09-25T03:29:56;9.00;99.90
42085;DHT22;27746;52.228;20.890;2022-09-25T03:32:23;9.00;99.90
42085;DHT22;27746;52.228;20.890;2022-09-25T03:34:51;8.90;99.90
42085;DHT22;27746;52.228;20.890;2022-09-25T03:37:18;8.90;99.90
42085;DHT22;27746;52.228;20.890;2022-09-25T03:39:45;8.90;99.90
42085;DHT22;27746;52.228;20.890;2022-09-25T03:42:11;8.80;99.90
42085;DHT22;27746;52.228;20.890;2022-09-25T03:44:38;8.90;99.90
42085;DHT22;27746;52.228;20.890;2022-09-25T03:47:05;8.90;99.90
42085;DHT22;27746;52.228;20.890;2022-09-25T03:49:32;8.80;99.90
42085;DHT22;27746;52.228;20.890;2022-09-25T03:52:00;8.90;99.90
42085;DHT22;27746;52.228;20.890;2022-09-25T03:54:27;8.80;99.90
42085;DHT22;27746;52.228;20.890;2022-09-25T03:56:53;8.80;99.90
42085;DHT22;27746;52.228;20.890;2022-09-25T03:59:20;8.80;99.90
42085;DHT22;27746;52.228;20.890;2022-09-25T04:01:47;8.80;99.90
42085;DHT22;27746;52.228;20.890;2022-09-25T04:04:14;8.80;99.90
42085;DHT22;27746;52.228;20.890;2022-09-25T04:06:40;8.80;99.90
42085;DHT22;27746;52.228;20.890;2022-09-25T04:09:08;8.70;99.90
42085;DHT22;27746;52.228;20.890;2022-09-25T04:11:35;8.60;99.90
42085;DHT22;27746;52.228;20.890;2022-09-25T04:14:02;8.70;99.90
42085;DHT22;27746;52.228;20.890;2022-09-25T04:16:29;8.60;99.90
42085;DHT22;27746;52.228;20.890;2022-09-25T04:18:56;8.70;99.90
42085;DHT22;27746;52.228;20.890;2022-09-25T04:21:23;8.70;99.90
42085;DHT22;27746;52.228;20.890;2022-09-25T04:23:49;8.70;99.90
42085;DHT22;27746;52.228;20.890;2022-09-25T04:26:32;8.70;99.90
42085;DHT22;27746;52.228;20.890;2022-09-25T04:28:59;8.70;99.90
42085;DHT22;27746;52.228;20.890;2022-09-25T04:31:26;8.70;99.90
42085;DHT22;27746;52.228;20.890;2022-09-25T04:33:53;8.70;99.90
42085;DHT22;27746;52.228;20.890;2022-09-25T04:36:19;8.70;99.90
42085;DHT22;27746;52.228;20.890;2022-09-25T04:38:46;8.70;99.90
42085;DHT22;27746;52.228;20.890;2022-09-25T04:41:13;8.70;99.90
42085;DHT22;27746;52.228;20.890;2022-09-25T04:43:42;8.60;99.90
42085;DHT22;27746;52.228;20.890;2022-09-25T04:46:10;8.60;99.90
42085;DHT22;27746;52.228;20.890;2022-09-25T04:48:37;8.70;99.90
42085;DHT22;27746;52.228;20.890;2022-09-25T04:51:04;8.70;99.90
42085;DHT22;27746;52.228;20.890;2022-09-25T04:53:31;8.70;99.90
42085;DHT22;27746;52.228;20.890;2022-09-25T04:56:00;8.70;99.90
42085;DHT22;27746;52.228;20.890;2022-09-25T04:58:27;8.70;99.90
42085;DHT22;27746;52.228;20.890;2022-09-25T05:00:59;8.70;99.90
42085;DHT22;27746;52.228;20.890;2022-09-25T05:03:27;8.80;99.90
42085;DHT22;27746;52.228;20.890;2022-09-25T05:05:54;8.80;99.90
42085;DHT22;27746;52.228;20.890;2022-09-25T05:08:21;8.80;99.90
42085;DHT22;27746;52.228;20.890;2022-09-25T05:10:48;8.90;99.90
42085;DHT22;27746;52.228;20.890;2022-09-25T05:13:15;8.90;99.90
42085;DHT22;27746;52.228;20.890;2022-09-25T05:15:43;9.00;99.90
42085;DHT22;27746;52.228;20.890;2022-09-25T05:18:15;9.00;99.90
42085;DHT22;27746;52.228;20.890;2022-09-25T05:20:42;9.00;99.90
42085;DHT22;27746;52.228;20.890;2022-09-25T05:23:09;9.00;99.90
42085;DHT22;27746;52.228;20.890;2022-09-25T05:25:36;9.10;99.90
42085;DHT22;27746;52.228;20.890;2022-09-25T05:28:03;9.20;99.90
42085;DHT22;27746;52.228;20.890;2022-09-25T05:30:32;9.20;99.90
42085;DHT22;27746;52.228;20.890;2022-09-25T05:32:59;9.20;99.90
42085;DHT22;27746;52.228;20.890;2022-09-25T05:35:29;9.20;99.90
42085;DHT22;27746;52.228;20.890;2022-09-25T05:37:56;9.30;99.90
42085;DHT22;27746;52.228;20.890;2022-09-25T05:40:23;9.40;99.90
42085;DHT22;27746;52.228;20.890;2022-09-25T05:42:50;9.40;99.90
42085;DHT22;27746;52.228;20.890;2022-09-25T05:45:19;9.50;99.90
42085;DHT22;27746;52.228;20.890;2022-09-25T05:47:46;9.60;99.90
42085;DHT22;27746;52.228;20.890;2022-09-25T05:50:14;9.70;99.90
42085;DHT22;27746;52.228;20.890;2022-09-25T05:52:42;9.70;99.90
42085;DHT22;27746;52.228;20.890;2022-09-25T05:55:09;9.80;99.90
42085;DHT22;27746;52.228;20.890;2022-09-25T05:57:37;9.90;99.90
42085;DHT22;27746;52.228;20.890;2022-09-25T06:00:05;10.00;99.90
42085;DHT22;27746;52.228;20.890;2022-09-25T06:02:33;10.10;99.90
42085;DHT22;27746;52.228;20.890;2022-09-25T06:05:00;10.10;99.90
42085;DHT22;27746;52.228;20.890;2022-09-25T06:07:27;10.10;99.90
42085;DHT22;27746;52.228;20.890;2022-09-25T06:09:55;10.20;99.90
42085;DHT22;27746;52.228;20.890;2022-09-25T06:12:22;10.20;99.90
42085;DHT22;27746;52.228;20.890;2022-09-25T06:14:49;10.20;99.90
42085;DHT22;27746;52.228;20.890;2022-09-25T06:17:16;10.30;99.90
42085;DHT22;27746;52.228;20.890;2022-09-25T06:19:42;10.40;99.90
42085;DHT22;27746;52.228;20.890;2022-09-25T06:22:09;10.50;99.90
42085;DHT22;27746;52.228;20.890;2022-09-25T06:24:36;10.60;99.90
42085;DHT22;27746;52.228;20.890;2022-09-25T06:27:04;10.70;99.90
42085;DHT22;27746;52.228;20.890;2022-09-25T06:29:31;10.70;99.90
42085;DHT22;27746;52.228;20.890;2022-09-25T06:31:58;10.90;99.90
42085;DHT22;27746;52.228;20.890;2022-09-25T06:34:25;10.90;99.90
42085;DHT22;27746;52.228;20.890;2022-09-25T06:36:52;10.90;99.90
42085;DHT22;27746;52.228;20.890;2022-09-25T06:39:19;11.00;99.90
42085;DHT22;27746;52.228;20.890;2022-09-25T06:41:46;11.20;99.90
42085;DHT22;27746;52.228;20.890;2022-09-25T06:44:14;11.30;99.90
42085;DHT22;27746;52.228;20.890;2022-09-25T06:46:41;11.50;99.90
42085;DHT22;27746;52.228;20.890;2022-09-25T06:49:11;11.60;99.80
42085;DHT22;27746;52.228;20.890;2022-09-25T06:51:39;11.70;99.50
42085;DHT22;27746;52.228;20.890;2022-09-25T06:54:06;11.80;99.40
42085;DHT22;27746;52.228;20.890;2022-09-25T06:56:32;12.00;99.30
42085;DHT22;27746;52.228;20.890;2022-09-25T06:58:59;12.00;99.20
42085;DHT22;27746;52.228;20.890;2022-09-25T07:01:27;12.10;99.40
42085;DHT22;27746;52.228;20.890;2022-09-25T07:03:54;12.30;99.30
42085;DHT22;27746;52.228;20.890;2022-09-25T07:06:21;12.40;99.20
42085;DHT22;27746;52.228;20.890;2022-09-25T07:08:48;12.60;99.00
42085;DHT22;27746;52.228;20.890;2022-09-25T07:11:17;12.70;99.10
42085;DHT22;27746;52.228;20.890;2022-09-25T07:13:44;12.80;98.40
42085;DHT22;27746;52.228;20.890;2022-09-25T07:16:13;12.90;98.60
42085;DHT22;27746;52.228;20.890;2022-09-25T07:18:41;13.00;98.40
42085;DHT22;27746;52.228;20.890;2022-09-25T07:21:11;13.10;98.30
42085;DHT22;27746;52.228;20.890;2022-09-25T07:23:40;13.20;98.20
42085;DHT22;27746;52.228;20.890;2022-09-25T07:26:09;13.40;98.30
42085;DHT22;27746;52.228;20.890;2022-09-25T07:28:37;13.50;98.00
42085;DHT22;27746;52.228;20.890;2022-09-25T07:31:11;13.80;98.10
42085;DHT22;27746;52.228;20.890;2022-09-25T07:33:38;14.00;97.70
42085;DHT22;27746;52.228;20.890;2022-09-25T07:36:07;14.10;97.30
42085;DHT22;27746;52.228;20.890;2022-09-25T07:38:34;14.30;97.30
42085;DHT22;27746;52.228;20.890;2022-09-25T07:41:02;14.40;96.90
42085;DHT22;27746;52.228;20.890;2022-09-25T07:43:29;14.60;96.20
42085;DHT22;27746;52.228;20.890;2022-09-25T07:45:57;14.60;95.60
42085;DHT22;27746;52.228;20.890;2022-09-25T07:48:24;14.60;96.20
42085;DHT22;27746;52.228;20.890;2022-09-25T07:50:51;14.80;95.90
42085;DHT22;27746;52.228;20.890;2022-09-25T07:53:21;14.90;95.50
42085;DHT22;27746;52.228;20.890;2022-09-25T07:55:48;15.00;95.40
42085;DHT22;27746;52.228;20.890;2022-09-25T07:58:15;15.10;95.60
42085;DHT22;27746;52.228;20.890;2022-09-25T08:00:44;15.10;95.10
42085;DHT22;27746;52.228;20.890;2022-09-25T08:03:13;15.30;94.90
42085;DHT22;27746;52.228;20.890;2022-09-25T08:05:40;15.50;94.30
42085;DHT22;27746;52.228;20.890;2022-09-25T08:08:07;15.70;94.30
42085;DHT22;27746;52.228;20.890;2022-09-25T08:10:35;15.90;93.50
42085;DHT22;27746;52.228;20.890;2022-09-25T08:13:02;15.90;93.30
42085;DHT22;27746;52.228;20.890;2022-09-25T08:15:29;16.00;93.10
42085;DHT22;27746;52.228;20.890;2022-09-25T08:17:55;15.90;92.90
42085;DHT22;27746;52.228;20.890;2022-09-25T08:20:22;15.90;93.20
42085;DHT22;27746;52.228;20.890;2022-09-25T08:22:52;16.00;92.90
42085;DHT22;27746;52.228;20.890;2022-09-25T08:25:19;16.00;93.00
42085;DHT22;27746;52.228;20.890;2022-09-25T08:27:47;16.00;93.00
42085;DHT22;27746;52.228;20.890;2022-09-25T08:30:17;15.90;93.20
42085;DHT22;27746;52.228;20.890;2022-09-25T08:32:44;15.80;93.60
42085;DHT22;27746;52.228;20.890;2022-09-25T08:35:10;15.60;93.60
42085;DHT22;27746;52.228;20.890;2022-09-25T08:37:41;15.60;94.00
42085;DHT22;27746;52.228;20.890;2022-09-25T08:40:15;15.60;93.80
42085;DHT22;27746;52.228;20.890;2022-09-25T08:42:44;15.60;93.80
42085;DHT22;27746;52.228;20.890;2022-09-25T08:45:22;15.70;93.70
42085;DHT22;27746;52.228;20.890;2022-09-25T08:48:11;15.80;93.80
42085;DHT22;27746;52.228;20.890;2022-09-25T08:50:58;15.90;93.90
42085;DHT22;27746;52.228;20.890;2022-09-25T08:53:30;16.00;93.80
42085;DHT22;27746;52.228;20.890;2022-09-25T08:55:59;16.10;93.50
42085;DHT22;27746;52.228;20.890;2022-09-25T08:58:45;16.00;92.90
42085;DHT22;27746;52.228;20.890;2022-09-25T09:01:16;16.00;93.10
42085;DHT22;27746;52.228;20.890;2022-09-25T09:03:47;15.80;93.40
42085;DHT22;27746;52.228;20.890;2022-09-25T09:06:16;15.70;93.60
42085;DHT22;27746;52.228;20.890;2022-09-25T09:08:48;15.90;93.00
42085;DHT22;27746;52.228;20.890;2022-09-25T09:11:19;16.00;93.50
42085;DHT22;27746;52.228;20.890;2022-09-25T09:13:51;16.20;92.20
42085;DHT22;27746;52.228;20.890;2022-09-25T09:16:27;16.50;92.10
42085;DHT22;27746;52.228;20.890;2022-09-25T09:18:55;16.80;91.60
42085;DHT22;27746;52.228;20.890;2022-09-25T09:21:27;17.10;91.20
42085;DHT22;27746;52.228;20.890;2022-09-25T09:24:04;17.40;90.60
42085;DHT22;27746;52.228;20.890;2022-09-25T09:26:40;17.80;90.00
42085;DHT22;27746;52.228;20.890;2022-09-25T09:29:30;18.10;89.80
42085;DHT22;27746;52.228;20.890;2022-09-25T09:32:06;18.30;89.30
42085;DHT22;27746;52.228;20.890;2022-09-25T09:34:53;18.60;87.10
42085;DHT22;27746;52.228;20.890;2022-09-25T09:37:24;18.80;86.20
42085;DHT22;27746;52.228;20.890;2022-09-25T09:40:06;19.20;85.00
42085;DHT22;27746;52.228;20.890;2022-09-25T09:42:43;19.40;83.70
42085;DHT22;27746;52.228;20.890;2022-09-25T09:45:15;19.80;82.50
42085;DHT22;27746;52.228;20.890;2022-09-25T09:47:51;20.30;81.00
42085;DHT22;27746;52.228;20.890;2022-09-25T09:50:28;20.70;79.50
42085;DHT22;27746;52.228;20.890;2022-09-25T09:53:03;21.20;77.50
42085;DHT22;27746;52.228;20.890;2022-09-25T09:55:37;21.70;77.70
42085;DHT22;27746;52.228;20.890;2022-09-25T09:58:12;22.00;76.10
42085;DHT22;27746;52.228;20.890;2022-09-25T10:00:43;22.30;74.10
42085;DHT22;27746;52.228;20.890;2022-09-25T10:03:17;22.90;73.40
42085;DHT22;27746;52.228;20.890;2022-09-25T10:05:46;23.30;70.80
42085;DHT22;27746;52.228;20.890;2022-09-25T10:08:13;24.00;69.40
42085;DHT22;27746;52.228;20.890;2022-09-25T10:10:43;24.70;68.20
42085;DHT22;27746;52.228;20.890;2022-09-25T10:13:15;25.50;65.30
42085;DHT22;27746;52.228;20.890;2022-09-25T10:15:46;25.80;64.40
42085;DHT22;27746;52.228;20.890;2022-09-25T10:18:18;25.90;63.20
42085;DHT22;27746;52.228;20.890;2022-09-25T10:20:56;26.70;61.00
42085;DHT22;27746;52.228;20.890;2022-09-25T10:23:32;27.10;59.40
42085;DHT22;27746;52.228;20.890;2022-09-25T10:26:02;27.60;58.30
42085;DHT22;27746;52.228;20.890;2022-09-25T10:28:32;27.80;57.50
42085;DHT22;27746;52.228;20.890;2022-09-25T10:31:01;28.10;57.10
42085;DHT22;27746;52.228;20.890;2022-09-25T10:33:31;27.60;54.60
42085;DHT22;27746;52.228;20.890;2022-09-25T10:35:58;28.00;54.60
42085;DHT22;27746;52.228;20.890;2022-09-25T10:38:33;28.30;54.40
42085;DHT22;27746;52.228;20.890;2022-09-25T10:41:05;29.00;53.50
42085;DHT22;27746;52.228;20.890;2022-09-25T10:43:33;29.10;52.80
42085;DHT22;27746;52.228;20.890;2022-09-25T10:46:12;28.70;53.10
42085;DHT22;27746;52.228;20.890;2022-09-25T10:48:41;29.70;52.20
42085;DHT22;27746;52.228;20.890;2022-09-25T10:51:26;29.70;51.20
42085;DHT22;27746;52.228;20.890;2022-09-25T10:54:11;29.30;50.90
42085;DHT22;27746;52.228;20.890;2022-09-25T10:56:38;28.30;51.80
42085;DHT22;27746;52.228;20.890;2022-09-25T10:59:12;27.60;53.20
42085;DHT22;27746;52.228;20.890;2022-09-25T11:01:42;27.80;52.10
42085;DHT22;27746;52.228;20.890;2022-09-25T11:04:16;28.10;50.40
42085;DHT22;27746;52.228;20.890;2022-09-25T11:06:46;28.90;49.50
42085;DHT22;27746;52.228;20.890;2022-09-25T11:09:16;30.50;48.70
42085;DHT22;27746;52.228;20.890;2022-09-25T11:11:44;31.40;47.50
42085;DHT22;27746;52.228;20.890;2022-09-25T11:14:19;31.10;46.80
42085;DHT22;27746;52.228;20.890;2022-09-25T11:16:50;31.00;46.00
42085;DHT22;27746;52.228;20.890;2022-09-25T11:19:25;31.50;46.20
42085;DHT22;27746;52.228;20.890;2022-09-25T11:22:11;31.50;44.80
42085;DHT22;27746;52.228;20.890;2022-09-25T11:24:48;32.00;45.40
42085;DHT22;27746;52.228;20.890;2022-09-25T11:27:20;31.70;45.40
42085;DHT22;27746;52.228;20.890;2022-09-25T11:29:56;30.80;45.90
42085;DHT22;27746;52.228;20.890;2022-09-25T11:32:31;31.40;46.00
42085;DHT22;27746;52.228;20.890;2022-09-25T11:35:16;31.00;46.30
42085;DHT22;27746;52.228;20.890;2022-09-25T11:37:51;32.10;45.80
42085;DHT22;27746;52.228;20.890;2022-09-25T11:40:30;32.10;45.40
42085;DHT22;27746;52.228;20.890;2022-09-25T11:43:22;32.50;45.30
42085;DHT22;27746;52.228;20.890;2022-09-25T11:45:54;31.80;45.70
42085;DHT22;27746;52.228;20.890;2022-09-25T11:48:27;31.70;47.30
42085;DHT22;27746;52.228;20.890;2022-09-25T11:51:06;31.30;47.50
42085;DHT22;27746;52.228;20.890;2022-09-25T11:53:40;32.70;45.70
42085;DHT22;27746;52.228;20.890;2022-09-25T11:56:18;33.00;44.20
42085;DHT22;27746;52.228;20.890;2022-09-25T11:58:59;30.50;45.40
42085;DHT22;27746;52.228;20.890;2022-09-25T12:01:33;28.40;47.70
42085;DHT22;27746;52.228;20.890;2022-09-25T12:04:23;28.00;48.40
42085;DHT22;27746;52.228;20.890;2022-09-25T12:07:14;27.60;49.60
42085;DHT22;27746;52.228;20.890;2022-09-25T12:10:09;26.60;50.30
42085;DHT22;27746;52.228;20.890;2022-09-25T12:12:44;26.50;51.80
42085;DHT22;27746;52.228;20.890;2022-09-25T12:15:23;27.70;50.20
42085;DHT22;27746;52.228;20.890;2022-09-25T12:17:59;29.60;48.70
42085;DHT22;27746;52.228;20.890;2022-09-25T12:20:33;30.80;46.70
42085;DHT22;27746;52.228;20.890;2022-09-25T12:23:15;32.60;46.00
42085;DHT22;27746;52.228;20.890;2022-09-25T12:25:57;32.10;45.70
42085;DHT22;27746;52.228;20.890;2022-09-25T12:28:33;32.20;45.90
42085;DHT22;27746;52.228;20.890;2022-09-25T12:31:08;32.90;44.60
42085;DHT22;27746;52.228;20.890;2022-09-25T12:33:47;34.20;44.10
42085;DHT22;27746;52.228;20.890;2022-09-25T12:36:19;35.20;44.10
42085;DHT22;27746;52.228;20.890;2022-09-25T12:38:50;34.80;43.50
42085;DHT22;27746;52.228;20.890;2022-09-25T12:41:23;34.70;42.70
42085;DHT22;27746;52.228;20.890;2022-09-25T12:43:56;35.00;42.60
42085;DHT22;27746;52.228;20.890;2022-09-25T12:46:27;35.70;42.90
42085;DHT22;27746;52.228;20.890;2022-09-25T12:48:59;35.40;42.40
42085;DHT22;27746;52.228;20.890;2022-09-25T12:51:33;34.50;43.10
42085;DHT22;27746;52.228;20.890;2022-09-25T12:54:14;34.40;42.70
42085;DHT22;27746;52.228;20.890;2022-09-25T12:56:51;34.50;42.70
42085;DHT22;27746;52.228;20.890;2022-09-25T12:59:24;32.90;43.20
42085;DHT22;27746;52.228;20.890;2022-09-25T13:01:56;31.60;44.20
42085;DHT22;27746;52.228;20.890;2022-09-25T13:04:40;30.70;45.40
42085;DHT22;27746;52.228;20.890;2022-09-25T13:07:14;30.60;46.10
42085;DHT22;27746;52.228;20.890;2022-09-25T13:09:48;30.60;45.70
42085;DHT22;27746;52.228;20.890;2022-09-25T13:12:22;29.90;46.20
42085;DHT22;27746;52.228;20.890;2022-09-25T13:14:53;28.70;47.30
42085;DHT22;27746;52.228;20.890;2022-09-25T13:17:22;27.50;48.40
42085;DHT22;27746;52.228;20.890;2022-09-25T13:19:49;26.40;50.50
42085;DHT22;27746;52.228;20.890;2022-09-25T13:22:18;25.90;51.10
42085;DHT22;27746;52.228;20.890;2022-09-25T13:24:50;25.20;52.20
42085;DHT22;27746;52.228;20.890;2022-09-25T13:27:22;24.80;52.90
42085;DHT22;27746;52.228;20.890;2022-09-25T13:29:52;24.60;52.90
42085;DHT22;27746;52.228;20.890;2022-09-25T13:32:23;24.30;54.00
42085;DHT22;27746;52.228;20.890;2022-09-25T13:34:54;24.10;54.50
42085;DHT22;27746;52.228;20.890;2022-09-25T13:37:25;23.80;55.50
42085;DHT22;27746;52.228;20.890;2022-09-25T13:39:58;23.50;55.90
42085;DHT22;27746;52.228;20.890;2022-09-25T13:42:44;23.50;56.20
42085;DHT22;27746;52.228;20.890;2022-09-25T13:45:30;23.30;56.50
42085;DHT22;27746;52.228;20.890;2022-09-25T13:48:09;23.10;57.10
42085;DHT22;27746;52.228;20.890;2022-09-25T13:50:41;23.00;57.80
42085;DHT22;27746;52.228;20.890;2022-09-25T13:53:19;22.80;58.40
42085;DHT22;27746;52.228;20.890;2022-09-25T13:59:21;22.30;58.80
42085;DHT22;27746;52.228;20.890;2022-09-25T14:01:51;22.10;60.10
42085;DHT22;27746;52.228;20.890;2022-09-25T14:04:40;21.90;59.80
42085;DHT22;27746;52.228;20.890;2022-09-25T14:07:17;21.70;60.00
42085;DHT22;27746;52.228;20.890;2022-09-25T14:09:47;21.50;60.80
42085;DHT22;27746;52.228;20.890;2022-09-25T14:12:26;21.30;61.50
42085;DHT22;27746;52.228;20.890;2022-09-25T14:14:58;21.20;61.60
42085;DHT22;27746;52.228;20.890;2022-09-25T14:17:28;21.00;62.00
42085;DHT22;27746;52.228;20.890;2022-09-25T14:19:59;20.70;62.60
42085;DHT22;27746;52.228;20.890;2022-09-25T14:22:32;19.50;62.60
42085;DHT22;27746;52.228;20.890;2022-09-25T14:24:59;20.50;63.40
42085;DHT22;27746;52.228;20.890;2022-09-25T14:27:27;20.40;63.70
42085;DHT22;27746;52.228;20.890;2022-09-25T14:30:10;20.10;64.70
42085;DHT22;27746;52.228;20.890;2022-09-25T14:32:51;20.00;65.10
42085;DHT22;27746;52.228;20.890;2022-09-25T14:35:29;19.90;65.20
42085;DHT22;27746;52.228;20.890;2022-09-25T14:38:18;19.80;65.40
42085;DHT22;27746;52.228;20.890;2022-09-25T14:40:55;19.80;65.50
42085;DHT22;27746;52.228;20.890;2022-09-25T14:43:47;19.70;66.00
42085;DHT22;27746;52.228;20.890;2022-09-25T14:46:20;19.70;66.60
42085;DHT22;27746;52.228;20.890;2022-09-25T14:48:49;19.60;66.20
42085;DHT22;27746;52.228;20.890;2022-09-25T14:51:21;19.50;67.20
42085;DHT22;27746;52.228;20.890;2022-09-25T14:53:52;19.50;66.80
42085;DHT22;27746;52.228;20.890;2022-09-25T14:56:20;19.30;66.90
42085;DHT22;27746;52.228;20.890;2022-09-25T14:58:48;19.20;67.00
42085;DHT22;27746;52.228;20.890;2022-09-25T15:01:24;19.30;67.20
42085;DHT22;27746;52.228;20.890;2022-09-25T15:03:53;19.30;67.50
42085;DHT22;27746;52.228;20.890;2022-09-25T15:06:25;19.20;67.70
42085;DHT22;27746;52.228;20.890;2022-09-25T15:08:52;19.10;68.50
42085;DHT22;27746;52.228;20.890;2022-09-25T15:11:20;19.00;68.60
42085;DHT22;27746;52.228;20.890;2022-09-25T15:13:47;19.00;68.40
42085;DHT22;27746;52.228;20.890;2022-09-25T15:16:17;18.90;68.50
42085;DHT22;27746;52.228;20.890;2022-09-25T15:19:07;18.80;69.00
42085;DHT22;27746;52.228;20.890;2022-09-25T15:21:40;18.70;68.80
42085;DHT22;27746;52.228;20.890;2022-09-25T15:24:13;18.60;69.20
42085;DHT22;27746;52.228;20.890;2022-09-25T15:26:45;18.50;69.80
42085;DHT22;27746;52.228;20.890;2022-09-25T15:29:14;18.40;70.20
42085;DHT22;27746;52.228;20.890;2022-09-25T15:31:42;18.30;71.10
42085;DHT22;27746;52.228;20.890;2022-09-25T15:34:13;18.10;71.20
42085;DHT22;27746;52.228;20.890;2022-09-25T15:36:40;18.10;71.50
42085;DHT22;27746;52.228;20.890;2022-09-25T15:39:12;18.10;71.40
42085;DHT22;27746;52.228;20.890;2022-09-25T15:41:41;18.00;71.40
42085;DHT22;27746;52.228;20.890;2022-09-25T15:44:14;17.90;71.80
42085;DHT22;27746;52.228;20.890;2022-09-25T15:46:45;17.90;72.40
42085;DHT22;27746;52.228;20.890;2022-09-25T15:49:16;17.80;72.30